createdAt,value
2022-11-12T00:01:44.510Z,26.20
2022-11-12T00:04:13.613Z,23.17
2022-11-12T00:06:42.771Z,22.92
2022-11-12T00:09:11.927Z,27.52
2022-11-12T00:11:41.088Z,24.98
2022-11-12T00:14:10.139Z,22.92
2022-11-12T00:16:39.285Z,27.95
2022-11-12T00:19:08.393Z,31.75
2022-11-12T00:21:37.534Z,23.30
2022-11-12T00:24:07.008Z,25.83
2022-11-12T00:26:36.114Z,52.58
2022-11-12T00:29:05.519Z,25.35
2022-11-12T00:31:35.537Z,33.38
2022-11-12T00:34:04.593Z,26.63
2022-11-12T00:36:33.705Z,24.75
2022-11-12T00:39:02.771Z,29.88
2022-11-12T00:41:31.854Z,23.58
2022-11-12T00:44:01.313Z,22.48
2022-11-12T00:46:30.411Z,25.23
2022-11-12T00:48:59.601Z,27.35
2022-11-12T00:51:28.671Z,35.88
2022-11-12T00:53:57.736Z,17.60
2022-11-12T00:56:28.025Z,22.70
2022-11-12T00:59:02.593Z,27.40
2022-11-12T01:01:31.732Z,31.10
2022-11-12T01:04:01.322Z,31.98
2022-11-12T01:06:30.441Z,24.40
2022-11-12T01:09:00.044Z,17.85
2022-11-12T01:11:31.900Z,19.27
2022-11-12T01:14:07.816Z,41.15
2022-11-12T01:16:43.826Z,23.92
2022-11-12T01:19:14.800Z,10.68
2022-11-12T01:21:46.148Z,12.02
2022-11-12T01:24:15.327Z,20.55
2022-11-12T01:26:50.987Z,11.13
2022-11-12T01:29:22.334Z,18.58
2022-11-12T01:31:51.536Z,23.15
2022-11-12T01:34:23.498Z,13.80
2022-11-12T01:36:55.542Z,20.75
2022-11-12T01:39:30.465Z,8.82
2022-11-12T01:42:07.115Z,13.35
2022-11-12T01:44:43.517Z,11.50
2022-11-12T01:47:35.874Z,12.43
2022-11-12T01:50:35.225Z,8.80
2022-11-12T01:53:12.756Z,9.98
2022-11-12T01:55:45.933Z,10.25
2022-11-12T01:58:20.480Z,7.78
2022-11-12T02:00:51.364Z,13.90
2022-11-12T02:03:32.110Z,14.27
2022-11-12T02:06:16.887Z,8.55
2022-11-12T02:08:47.267Z,14.95
2022-11-12T02:11:22.920Z,17.55
2022-11-12T02:14:02.273Z,16.80
2022-11-12T02:16:47.051Z,19.27
2022-11-12T02:19:18.885Z,13.35
2022-11-12T02:21:48.478Z,10.70
2022-11-12T02:24:17.481Z,14.40
2022-11-12T02:26:52.717Z,14.65
2022-11-12T02:29:22.593Z,12.23
2022-11-12T02:31:51.733Z,16.30
2022-11-12T02:34:20.904Z,13.55
2022-11-12T02:36:49.984Z,18.27
2022-11-12T02:39:19.773Z,7.70
2022-11-12T02:41:48.978Z,7.55
2022-11-12T02:44:18.141Z,15.15
2022-11-12T02:46:50.397Z,7.78
2022-11-12T02:49:19.583Z,9.27
2022-11-12T02:51:48.716Z,6.45
2022-11-12T02:54:17.826Z,7.30
2022-11-12T02:56:46.910Z,8.55
2022-11-12T02:59:16.091Z,7.90
2022-11-12T03:01:45.207Z,12.45
2022-11-12T03:04:14.292Z,10.43
2022-11-12T03:06:43.519Z,11.50
2022-11-12T03:09:14.145Z,12.05
2022-11-12T03:11:43.265Z,9.35
2022-11-12T03:14:12.627Z,10.45
2022-11-12T03:16:41.839Z,8.63
2022-11-12T03:19:10.877Z,6.60
2022-11-12T03:21:39.896Z,7.82
2022-11-12T03:24:09.312Z,13.30
2022-11-12T03:26:38.454Z,7.35
2022-11-12T03:29:07.798Z,10.00
2022-11-12T03:31:37.065Z,6.55
2022-11-12T03:34:06.281Z,8.93
2022-11-12T03:36:35.464Z,15.18
2022-11-12T03:39:04.820Z,8.65
2022-11-12T03:41:34.055Z,7.22
2022-11-12T03:44:03.255Z,11.25
2022-11-12T03:46:32.425Z,3.55
2022-11-12T03:49:03.618Z,8.45
2022-11-12T03:51:32.800Z,6.53
2022-11-12T03:54:01.945Z,6.25
2022-11-12T03:56:31.105Z,8.75
2022-11-12T03:59:00.266Z,5.20
2022-11-12T04:01:29.432Z,14.82
2022-11-12T04:03:58.779Z,4.22
2022-11-12T04:06:46.179Z,15.93
2022-11-12T04:09:15.439Z,8.23
2022-11-12T04:11:44.572Z,6.80
2022-11-12T04:14:13.769Z,7.80
2022-11-12T04:17:00.831Z,8.18
2022-11-12T04:19:48.061Z,5.60
2022-11-12T04:22:17.206Z,8.45
2022-11-12T04:25:04.830Z,7.43
2022-11-12T04:27:36.850Z,11.30
2022-11-12T04:30:19.790Z,25.63
2022-11-12T04:32:57.938Z,5.47
2022-11-12T04:35:29.031Z,7.05
2022-11-12T04:37:58.546Z,5.82
2022-11-12T04:40:47.875Z,8.18
2022-11-12T04:43:37.667Z,7.43
2022-11-12T04:46:07.534Z,6.63
2022-11-12T04:48:36.628Z,4.60
2022-11-12T04:51:27.623Z,6.13
2022-11-12T04:53:56.946Z,7.55
2022-11-12T04:56:25.952Z,21.30
2022-11-12T04:58:55.112Z,7.65
2022-11-12T05:01:24.234Z,9.30
2022-11-12T05:03:53.320Z,6.03
2022-11-12T05:06:40.979Z,9.90
2022-11-12T05:09:10.075Z,13.50
2022-11-12T05:11:39.112Z,6.93
2022-11-12T05:14:08.202Z,9.07
2022-11-12T05:16:38.067Z,8.48
2022-11-12T05:19:07.547Z,4.78
2022-11-12T05:21:55.000Z,3.47
2022-11-12T05:24:41.034Z,6.45
2022-11-12T05:27:20.817Z,5.00
2022-11-12T05:29:49.940Z,10.60
2022-11-12T05:32:19.682Z,8.25
2022-11-12T05:34:48.818Z,4.85
2022-11-12T05:37:18.198Z,59.15
2022-11-12T05:39:47.338Z,6.45
2022-11-12T05:42:16.446Z,5.20
2022-11-12T05:44:45.486Z,10.50
2022-11-12T05:47:14.638Z,2.28
2022-11-12T05:49:43.773Z,2.83
2022-11-12T05:52:12.802Z,9.60
2022-11-12T05:54:41.949Z,3.60
2022-11-12T05:57:11.082Z,6.45
2022-11-12T05:59:40.105Z,6.97
2022-11-12T06:02:09.242Z,4.45
2022-11-12T06:04:38.326Z,4.55
2022-11-12T06:07:07.578Z,9.88
2022-11-12T06:09:36.682Z,3.40
2022-11-12T06:12:07.780Z,9.13
2022-11-12T06:14:36.855Z,6.30
2022-11-12T06:17:05.883Z,6.35
2022-11-12T06:19:34.996Z,4.28
2022-11-12T06:22:04.055Z,8.95
2022-11-12T06:24:35.421Z,10.38
2022-11-12T06:27:06.052Z,4.88
2022-11-12T06:29:35.870Z,8.38
2022-11-12T06:32:05.199Z,8.02
2022-11-12T06:34:34.346Z,3.75
2022-11-12T06:37:03.475Z,4.50
2022-11-12T06:39:32.690Z,8.80
2022-11-12T06:42:03.018Z,18.20
2022-11-12T06:44:32.148Z,3.22
2022-11-12T06:47:01.273Z,8.82
2022-11-12T06:49:30.487Z,5.97
2022-11-12T06:51:59.672Z,7.70
2022-11-12T06:54:28.835Z,7.28
2022-11-12T06:56:57.969Z,5.65
2022-11-12T06:59:27.111Z,13.63
2022-11-12T07:01:56.263Z,5.85
2022-11-12T07:04:26.791Z,5.43
2022-11-12T07:06:56.030Z,9.50
2022-11-12T07:09:25.178Z,6.40
2022-11-12T07:11:54.299Z,5.10
2022-11-12T07:14:23.442Z,4.38
2022-11-12T07:16:52.590Z,7.47
2022-11-12T07:19:21.698Z,10.40
2022-11-12T07:21:50.924Z,5.22
2022-11-12T07:24:20.048Z,6.35
2022-11-12T07:26:49.173Z,8.30
2022-11-12T07:29:35.605Z,7.03
2022-11-12T07:32:08.158Z,5.95
2022-11-12T07:34:37.326Z,8.48
2022-11-12T07:37:06.472Z,4.63
2022-11-12T07:39:35.601Z,9.82
2022-11-12T07:42:04.957Z,8.73
2022-11-12T07:44:34.139Z,10.02
2022-11-12T07:47:03.286Z,21.48
2022-11-12T07:49:32.444Z,5.53
2022-11-12T07:52:08.043Z,6.60
2022-11-12T07:54:37.287Z,9.90
2022-11-12T07:57:06.411Z,3.90
2022-11-12T07:59:35.537Z,5.78
2022-11-12T08:02:04.764Z,6.93
2022-11-12T08:04:35.505Z,3.60
2022-11-12T08:07:04.847Z,4.28
2022-11-12T08:09:34.733Z,7.97
2022-11-12T08:12:03.828Z,7.68
2022-11-12T08:14:33.063Z,9.45
2022-11-12T08:17:02.203Z,12.65
2022-11-12T08:19:31.363Z,8.65
2022-11-12T08:22:00.507Z,7.10
2022-11-12T08:24:29.605Z,8.48
2022-11-12T08:26:58.845Z,7.35
2022-11-12T08:29:28.038Z,9.38
2022-11-12T08:31:57.240Z,6.30
2022-11-12T08:34:26.664Z,4.65
2022-11-12T08:36:55.752Z,7.13
2022-11-12T08:39:25.032Z,4.90
2022-11-12T08:41:54.249Z,6.47
2022-11-12T08:44:23.384Z,9.35
2022-11-12T08:46:52.952Z,6.35
2022-11-12T08:49:22.110Z,6.68
2022-11-12T08:51:51.230Z,4.65
2022-11-12T08:54:20.412Z,8.02
2022-11-12T08:56:49.986Z,7.05
2022-11-12T08:59:19.197Z,7.72
2022-11-12T09:01:48.400Z,26.45
2022-11-12T09:04:17.925Z,5.15
2022-11-12T09:06:52.687Z,5.07
2022-11-12T09:09:23.003Z,4.80
2022-11-12T09:11:52.162Z,9.85
2022-11-12T09:14:21.483Z,11.95
2022-11-12T09:16:50.913Z,14.52
2022-11-12T09:19:20.046Z,23.25
2022-11-12T09:21:49.147Z,10.70
2022-11-12T09:24:18.380Z,4.85
2022-11-12T09:26:49.064Z,6.35
2022-11-12T09:29:19.895Z,6.63
2022-11-12T09:31:49.154Z,6.65
2022-11-12T09:34:18.451Z,11.52
2022-11-12T09:36:47.558Z,7.43
2022-11-12T09:39:16.724Z,13.77
2022-11-12T09:41:45.941Z,18.05
2022-11-12T09:44:25.372Z,31.90
2022-11-12T09:47:16.369Z,17.92
2022-11-12T09:50:06.186Z,9.75
2022-11-12T09:52:37.664Z,7.88
2022-11-12T09:55:35.345Z,40.85
2022-11-12T09:58:18.895Z,16.63
2022-11-12T10:01:04.566Z,24.63
2022-11-12T10:04:03.097Z,7.50
2022-11-12T10:06:57.050Z,13.82
2022-11-12T10:10:02.006Z,11.65
2022-11-12T10:13:00.801Z,21.67
2022-11-12T10:16:18.527Z,12.65
2022-11-12T10:19:07.440Z,16.80
2022-11-12T10:22:13.174Z,16.15
2022-11-12T10:24:44.230Z,11.18
2022-11-12T10:27:29.199Z,14.43
2022-11-12T10:30:25.273Z,7.68
2022-11-12T10:32:55.757Z,12.25
2022-11-12T10:35:25.969Z,8.57
2022-11-12T10:38:22.987Z,19.77
2022-11-12T10:40:52.069Z,25.87
2022-11-12T10:43:22.472Z,13.65
2022-11-12T10:45:53.065Z,17.88
2022-11-12T10:48:29.589Z,28.05
2022-11-12T10:50:58.901Z,14.85
2022-11-12T10:53:40.691Z,10.65
2022-11-12T10:56:33.657Z,17.17
2022-11-12T10:59:24.930Z,24.30
2022-11-12T11:02:02.391Z,15.40
2022-11-12T11:04:39.330Z,28.20
2022-11-12T11:07:25.523Z,16.55
2022-11-12T11:10:01.382Z,26.95
2022-11-12T11:12:35.721Z,22.00
2022-11-12T11:15:31.013Z,20.45
2022-11-12T11:18:02.802Z,20.33
2022-11-12T11:20:48.757Z,19.48
2022-11-12T11:23:38.972Z,21.23
2022-11-12T11:26:32.950Z,22.05
2022-11-12T11:29:26.268Z,16.65
2022-11-12T11:32:37.630Z,20.10
2022-11-12T11:36:02.451Z,17.40
2022-11-12T11:38:43.078Z,16.25
2022-11-12T11:41:31.341Z,20.73
2022-11-12T11:44:53.439Z,16.25
2022-11-12T11:48:00.441Z,18.85
2022-11-12T11:50:53.643Z,22.73
2022-11-12T11:54:03.351Z,21.10
2022-11-12T11:56:41.641Z,20.85
2022-11-12T12:03:08.246Z,17.55
2022-11-12T12:06:06.801Z,22.95
2022-11-12T12:08:56.631Z,19.95
2022-11-12T12:11:44.501Z,18.65
2022-11-12T12:14:31.843Z,22.25
2022-11-12T12:17:41.192Z,18.20
2022-11-12T12:20:34.873Z,21.10
2022-11-12T12:23:18.492Z,20.55
2022-11-12T12:25:50.439Z,14.10
2022-11-12T12:28:28.023Z,19.40
2022-11-12T12:31:06.989Z,16.90
2022-11-12T12:33:57.873Z,12.35
2022-11-12T12:36:42.980Z,17.88
2022-11-12T12:39:32.108Z,18.38
2022-11-12T12:42:20.875Z,14.38
2022-11-12T12:45:11.017Z,24.05
2022-11-12T12:47:45.074Z,28.52
2022-11-12T12:50:19.152Z,21.80
2022-11-12T12:53:23.244Z,14.35
2022-11-12T12:55:56.164Z,19.13
2022-11-12T12:58:47.742Z,21.80
2022-11-12T13:01:32.954Z,39.15
2022-11-12T13:04:09.566Z,36.30
2022-11-12T13:06:47.947Z,41.97
2022-11-12T13:09:17.029Z,50.08
2022-11-12T13:12:04.502Z,43.45
2022-11-12T13:14:36.254Z,40.60
2022-11-12T13:17:13.142Z,44.08
2022-11-12T13:20:00.528Z,42.33
2022-11-12T13:22:29.605Z,41.43
2022-11-12T13:25:33.885Z,37.72
2022-11-12T13:28:10.303Z,32.22
2022-11-12T13:30:42.739Z,38.47
2022-11-12T13:33:31.271Z,23.83
2022-11-12T13:36:31.131Z,29.88
2022-11-12T13:39:15.522Z,33.92
2022-11-12T13:42:03.045Z,33.90
2022-11-12T13:44:33.117Z,31.42
2022-11-12T13:47:02.823Z,30.80
2022-11-12T13:49:32.277Z,29.35
2022-11-12T13:52:01.764Z,42.92
2022-11-12T13:54:38.758Z,37.22
2022-11-12T13:57:26.007Z,75.22
2022-11-12T14:00:23.861Z,45.30
2022-11-12T14:03:09.025Z,26.42
2022-11-12T14:05:40.392Z,38.42
2022-11-12T14:08:35.075Z,49.22
2022-11-12T14:11:37.757Z,35.95
2022-11-12T14:14:42.491Z,52.03
2022-11-12T14:17:52.129Z,39.53
2022-11-12T14:20:38.174Z,39.85
2022-11-12T14:23:24.934Z,37.33
2022-11-12T14:25:58.028Z,36.28
2022-11-12T14:28:33.033Z,32.10
2022-11-12T14:31:05.085Z,37.75
2022-11-12T14:33:35.062Z,60.65
2022-11-12T14:36:16.099Z,45.00
2022-11-12T14:38:58.471Z,34.80
2022-11-12T14:41:43.609Z,35.10
2022-11-12T14:44:31.895Z,32.42
2022-11-12T14:49:44.745Z,34.65
2022-11-12T14:52:34.300Z,33.83
2022-11-12T14:55:15.410Z,28.42
2022-11-12T14:57:45.244Z,32.55
2022-11-12T15:00:46.552Z,25.30
2022-11-12T15:03:27.099Z,22.05
2022-11-12T15:06:30.602Z,18.60
2022-11-12T15:09:01.303Z,22.77
2022-11-12T15:11:44.451Z,20.92
2022-11-12T15:14:26.403Z,23.13
2022-11-12T15:16:55.785Z,18.20
2022-11-12T15:19:29.085Z,18.50
2022-11-12T15:22:02.884Z,20.25
2022-11-12T15:24:40.069Z,26.88
2022-11-12T15:27:43.170Z,29.02
2022-11-12T15:30:27.339Z,19.63
2022-11-12T15:33:14.775Z,27.95
2022-11-12T15:35:46.161Z,20.47
2022-11-12T15:38:25.181Z,26.15
2022-11-12T15:40:58.014Z,17.77
2022-11-12T15:43:33.570Z,17.95
2022-11-12T15:46:03.467Z,30.55
2022-11-12T15:48:32.492Z,21.90
2022-11-12T15:51:03.403Z,25.48
2022-11-12T15:53:32.483Z,20.50
2022-11-12T15:56:04.154Z,19.90
2022-11-12T15:58:38.319Z,24.90
2022-11-12T16:01:08.068Z,22.88
2022-11-12T16:03:37.171Z,52.35
2022-11-12T16:06:09.454Z,34.92
2022-11-12T16:08:38.681Z,29.25
2022-11-12T16:11:27.832Z,26.80
2022-11-12T16:13:56.983Z,29.83
2022-11-12T16:16:26.140Z,22.27
2022-11-12T16:18:55.239Z,26.60
2022-11-12T16:21:24.356Z,20.42
2022-11-12T16:23:53.398Z,24.35
2022-11-12T16:26:30.062Z,22.10
2022-11-12T16:29:00.835Z,23.90
2022-11-12T16:31:29.974Z,15.63
2022-11-12T16:33:59.103Z,28.33
2022-11-12T16:36:28.319Z,27.73
2022-11-12T16:38:58.987Z,30.65
2022-11-12T16:41:28.073Z,24.83
2022-11-12T16:43:57.213Z,17.17
2022-11-12T16:46:42.009Z,26.88
2022-11-12T16:49:15.860Z,23.90
2022-11-12T16:51:45.066Z,24.48
2022-11-12T16:54:14.180Z,16.25
2022-11-12T16:56:43.243Z,22.17
2022-11-12T16:59:15.541Z,18.23
2022-11-12T17:01:45.129Z,17.83
2022-11-12T17:04:14.259Z,21.00
2022-11-12T17:06:43.687Z,21.90
2022-11-12T17:09:13.895Z,18.55
2022-11-12T17:11:43.085Z,23.98
2022-11-12T17:14:12.548Z,19.40
2022-11-12T17:16:41.614Z,20.95
2022-11-12T17:19:12.687Z,23.10
2022-11-12T17:21:41.825Z,15.55
2022-11-12T17:24:11.641Z,26.05
2022-11-12T17:26:40.786Z,22.67
2022-11-12T17:29:09.904Z,22.40
2022-11-12T17:31:39.251Z,16.67
2022-11-12T17:34:08.482Z,21.50
2022-11-12T17:36:43.320Z,15.65
2022-11-12T17:39:14.913Z,16.75
2022-11-12T17:41:44.081Z,15.93
2022-11-12T17:44:19.158Z,21.55
2022-11-12T17:46:49.432Z,19.23
2022-11-12T17:49:18.789Z,20.23
2022-11-12T17:51:48.549Z,16.15
2022-11-12T17:54:18.423Z,20.08
2022-11-12T17:56:48.187Z,18.85
2022-11-12T17:59:17.894Z,13.38
2022-11-12T18:01:47.588Z,16.60
2022-11-12T18:04:17.208Z,17.88
2022-11-12T18:06:46.968Z,21.52
2022-11-12T18:09:17.809Z,23.92
2022-11-12T18:11:52.135Z,20.73
2022-11-12T18:14:21.993Z,21.85
2022-11-12T18:16:52.738Z,14.65
2022-11-12T18:19:22.197Z,20.85
2022-11-12T18:21:55.379Z,14.60
2022-11-12T18:24:24.519Z,14.57
2022-11-12T18:26:53.645Z,18.10
2022-11-12T18:29:22.724Z,14.25
2022-11-12T18:31:51.801Z,16.85
2022-11-12T18:34:20.966Z,12.55
2022-11-12T18:36:51.569Z,18.50
2022-11-12T18:39:20.670Z,12.65
2022-11-12T18:41:49.984Z,16.27
2022-11-12T18:44:23.260Z,11.82
2022-11-12T18:46:55.296Z,21.35
2022-11-12T18:49:24.522Z,16.60
2022-11-12T18:51:53.630Z,14.80
2022-11-12T18:54:25.259Z,17.65
2022-11-12T18:56:54.405Z,15.32
2022-11-12T18:59:25.299Z,11.90
2022-11-12T19:01:54.413Z,15.75
2022-11-12T19:04:24.304Z,14.20
2022-11-12T19:06:54.126Z,16.23
2022-11-12T19:09:23.334Z,15.43
2022-11-12T19:11:52.391Z,14.70
2022-11-12T19:14:21.502Z,14.95
2022-11-12T19:16:50.952Z,12.88
2022-11-12T19:19:19.986Z,13.98
2022-11-12T19:21:49.873Z,17.13
2022-11-12T19:24:19.164Z,13.32
2022-11-12T19:26:48.509Z,13.80
2022-11-12T19:29:17.557Z,16.63
2022-11-12T19:31:47.039Z,14.18
2022-11-12T19:34:16.090Z,13.88
2022-11-12T19:36:45.764Z,12.57
2022-11-12T19:39:15.326Z,16.13
2022-11-12T19:41:44.432Z,14.00
2022-11-12T19:44:13.595Z,13.15
2022-11-12T19:46:42.745Z,17.25
2022-11-12T19:49:12.435Z,13.05
2022-11-12T19:51:41.587Z,15.90
2022-11-12T19:54:10.769Z,16.45
2022-11-12T19:56:39.851Z,14.38
2022-11-12T19:59:09.022Z,11.82
2022-11-12T20:01:38.150Z,11.05
2022-11-12T20:04:07.392Z,12.15
2022-11-12T20:06:38.872Z,16.50
2022-11-12T20:09:09.753Z,14.50
2022-11-12T20:11:38.975Z,13.13
2022-11-12T20:14:08.044Z,12.60
2022-11-12T20:16:37.156Z,10.00
2022-11-12T20:19:06.294Z,11.52
2022-11-12T20:21:35.521Z,14.02
2022-11-12T20:24:04.696Z,10.85
2022-11-12T20:26:33.850Z,16.52
2022-11-12T20:29:03.054Z,11.75
2022-11-12T20:31:32.170Z,14.73
2022-11-12T20:34:02.397Z,14.73
2022-11-12T20:36:32.430Z,15.63
2022-11-12T20:39:02.021Z,17.75
2022-11-12T20:41:32.301Z,14.95
2022-11-12T20:44:03.520Z,17.95
2022-11-12T20:46:32.641Z,14.63
2022-11-12T20:49:02.299Z,17.45
2022-11-12T20:51:31.577Z,14.73
2022-11-12T20:54:01.008Z,18.08
2022-11-12T20:56:32.384Z,17.75
2022-11-12T20:59:02.042Z,21.85
2022-11-12T21:01:32.232Z,44.30
2022-11-12T21:04:01.772Z,14.43
2022-11-12T21:06:31.406Z,15.68
2022-11-12T21:09:01.749Z,15.60
2022-11-12T21:11:31.442Z,15.75
2022-11-12T21:14:02.127Z,12.68
2022-11-12T21:16:31.400Z,18.00
2022-11-12T21:19:04.345Z,20.58
2022-11-12T21:21:33.502Z,24.88
2022-11-12T21:24:05.011Z,32.53
2022-11-12T21:26:35.276Z,24.23
2022-11-12T21:29:05.602Z,18.70
2022-11-12T21:31:34.808Z,14.32
2022-11-12T21:34:05.826Z,12.98
2022-11-12T21:36:36.463Z,13.60
2022-11-12T21:39:06.597Z,13.73
2022-11-12T21:41:35.726Z,17.67
2022-11-12T21:44:04.928Z,18.60
2022-11-12T21:46:36.802Z,19.00
2022-11-12T21:49:06.473Z,16.52
2022-11-12T21:51:35.755Z,18.40
2022-11-12T21:54:08.485Z,15.60
2022-11-12T21:56:38.849Z,17.63
2022-11-12T21:59:08.280Z,15.75
2022-11-12T22:01:37.788Z,15.75
2022-11-12T22:04:10.946Z,17.38
2022-11-12T22:06:43.392Z,18.10
2022-11-12T22:09:12.661Z,14.32
2022-11-12T22:11:41.853Z,19.55
2022-11-12T22:14:11.026Z,12.63
2022-11-12T22:16:40.205Z,19.27
2022-11-12T22:19:09.476Z,18.60
2022-11-12T22:21:40.090Z,23.08
2022-11-12T22:24:11.800Z,14.35
2022-11-12T22:26:41.036Z,21.75
2022-11-12T22:29:10.193Z,20.70
2022-11-12T22:31:39.362Z,18.67
2022-11-12T22:34:10.377Z,18.85
2022-11-12T22:36:40.289Z,22.42
2022-11-12T22:39:09.449Z,19.73
2022-11-12T22:41:38.603Z,19.15
2022-11-12T22:44:07.810Z,19.38
2022-11-12T22:46:37.593Z,20.27
2022-11-12T22:49:08.394Z,20.73
2022-11-12T22:51:37.478Z,17.67
2022-11-12T22:54:13.957Z,18.85
2022-11-12T22:56:43.234Z,17.83
2022-11-12T22:59:13.326Z,23.65
2022-11-12T23:01:42.501Z,21.98
2022-11-12T23:04:11.742Z,22.90
2022-11-12T23:06:40.912Z,29.85
2022-11-12T23:09:15.228Z,16.77
2022-11-12T23:11:44.436Z,26.42
2022-11-12T23:14:13.518Z,28.83
2022-11-12T23:16:42.633Z,26.63
2022-11-12T23:19:11.740Z,26.00
2022-11-12T23:21:40.821Z,24.92
2022-11-12T23:24:10.102Z,21.88
2022-11-12T23:26:39.836Z,27.77
2022-11-12T23:29:09.237Z,32.67
2022-11-12T23:31:38.567Z,30.50
2022-11-12T23:34:08.047Z,30.17
2022-11-12T23:36:37.624Z,24.08
2022-11-12T23:39:06.938Z,29.13
2022-11-12T23:41:36.079Z,23.00
2022-11-12T23:44:05.248Z,24.85
2022-11-12T23:46:34.381Z,24.02
2022-11-12T23:49:03.403Z,129.25
2022-11-12T23:51:32.453Z,65.82
2022-11-12T23:54:01.540Z,27.90
2022-11-12T23:56:31.169Z,21.02
2022-11-12T23:59:00.215Z,27.77
